sensor_id;sensor_type;location;lat;lon;timestamp;P1;durP1;ratioP1;P2;durP2;ratioP2
24008;SDS011;12217;50.792;4.372;2022-11-11T00:00:59;17.25;;;11.50;;
24008;SDS011;12217;50.792;4.372;2022-11-11T00:03:30;19.85;;;11.25;;
24008;SDS011;12217;50.792;4.372;2022-11-11T00:05:59;16.58;;;10.70;;
24008;SDS011;12217;50.792;4.372;2022-11-11T00:08:29;16.65;;;11.68;;
24008;SDS011;12217;50.792;4.372;2022-11-11T00:10:59;17.50;;;11.05;;
24008;SDS011;12217;50.792;4.372;2022-11-11T00:13:29;16.90;;;11.15;;
24008;SDS011;12217;50.792;4.372;2022-11-11T00:15:56;16.23;;;10.68;;
24008;SDS011;12217;50.792;4.372;2022-11-11T00:18:31;21.67;;;10.65;;
24008;SDS011;12217;50.792;4.372;2022-11-11T00:21:16;14.30;;;9.73;;
24008;SDS011;12217;50.792;4.372;2022-11-11T00:24:00;15.90;;;10.88;;
24008;SDS011;12217;50.792;4.372;2022-11-11T00:26:44;17.35;;;10.63;;
24008;SDS011;12217;50.792;4.372;2022-11-11T00:29:09;18.58;;;11.00;;
24008;SDS011;12217;50.792;4.372;2022-11-11T00:31:35;21.08;;;13.43;;
24008;SDS011;12217;50.792;4.372;2022-11-11T00:34:21;17.58;;;11.57;;
24008;SDS011;12217;50.792;4.372;2022-11-11T00:36:46;17.10;;;12.05;;
24008;SDS011;12217;50.792;4.372;2022-11-11T00:39:12;20.02;;;13.40;;
24008;SDS011;12217;50.792;4.372;2022-11-11T00:41:38;21.17;;;13.18;;
24008;SDS011;12217;50.792;4.372;2022-11-11T00:44:03;19.35;;;12.95;;
24008;SDS011;12217;50.792;4.372;2022-11-11T00:46:29;19.77;;;13.38;;
24008;SDS011;12217;50.792;4.372;2022-11-11T00:49:13;21.40;;;14.43;;
24008;SDS011;12217;50.792;4.372;2022-11-11T00:51:57;17.83;;;13.27;;
24008;SDS011;12217;50.792;4.372;2022-11-11T00:54:22;22.20;;;14.32;;
24008;SDS011;12217;50.792;4.372;2022-11-11T00:56:48;20.88;;;13.05;;
24008;SDS011;12217;50.792;4.372;2022-11-11T00:59:13;16.67;;;12.98;;
24008;SDS011;12217;50.792;4.372;2022-11-11T01:01:39;20.77;;;14.32;;
24008;SDS011;12217;50.792;4.372;2022-11-11T01:04:04;17.65;;;12.35;;
24008;SDS011;12217;50.792;4.372;2022-11-11T01:06:30;22.90;;;14.15;;
24008;SDS011;12217;50.792;4.372;2022-11-11T01:08:56;19.25;;;12.15;;
24008;SDS011;12217;50.792;4.372;2022-11-11T01:11:22;17.65;;;12.20;;
24008;SDS011;12217;50.792;4.372;2022-11-11T01:13:49;19.83;;;12.93;;
24008;SDS011;12217;50.792;4.372;2022-11-11T01:16:17;22.52;;;14.27;;
24008;SDS011;12217;50.792;4.372;2022-11-11T01:18:44;22.77;;;15.13;;
24008;SDS011;12217;50.792;4.372;2022-11-11T01:21:15;22.77;;;13.68;;
24008;SDS011;12217;50.792;4.372;2022-11-11T01:23:44;18.30;;;12.80;;
24008;SDS011;12217;50.792;4.372;2022-11-11T01:26:13;19.30;;;12.50;;
24008;SDS011;12217;50.792;4.372;2022-11-11T01:28:47;19.63;;;12.73;;
24008;SDS011;12217;50.792;4.372;2022-11-11T01:31:14;16.35;;;12.05;;
24008;SDS011;12217;50.792;4.372;2022-11-11T01:33:41;19.85;;;12.27;;
24008;SDS011;12217;50.792;4.372;2022-11-11T01:36:08;20.20;;;11.40;;
24008;SDS011;12217;50.792;4.372;2022-11-11T01:38:35;23.58;;;12.35;;
24008;SDS011;12217;50.792;4.372;2022-11-11T01:41:02;16.25;;;11.70;;
24008;SDS011;12217;50.792;4.372;2022-11-11T01:43:48;14.13;;;11.05;;
24008;SDS011;12217;50.792;4.372;2022-11-11T01:46:56;18.88;;;11.23;;
24008;SDS011;12217;50.792;4.372;2022-11-11T01:49:11;16.67;;;11.02;;
24008;SDS011;12217;50.792;4.372;2022-11-11T01:57:31;17.58;;;11.18;;
24008;SDS011;12217;50.792;4.372;2022-11-11T02:00:04;17.85;;;11.35;;
24008;SDS011;12217;50.792;4.372;2022-11-11T02:02:33;15.52;;;10.90;;
24008;SDS011;12217;50.792;4.372;2022-11-11T02:05:16;17.40;;;11.02;;
24008;SDS011;12217;50.792;4.372;2022-11-11T02:08:24;19.88;;;11.30;;
24008;SDS011;12217;50.792;4.372;2022-11-11T02:11:03;20.23;;;11.90;;
24008;SDS011;12217;50.792;4.372;2022-11-11T02:14:00;17.70;;;11.80;;
24008;SDS011;12217;50.792;4.372;2022-11-11T02:16:45;17.30;;;11.23;;
24008;SDS011;12217;50.792;4.372;2022-11-11T02:19:11;21.60;;;11.95;;
24008;SDS011;12217;50.792;4.372;2022-11-11T02:21:41;19.55;;;12.15;;
24008;SDS011;12217;50.792;4.372;2022-11-11T02:24:11;16.45;;;11.85;;
24008;SDS011;12217;50.792;4.372;2022-11-11T02:26:41;16.40;;;11.32;;
24008;SDS011;12217;50.792;4.372;2022-11-11T02:29:09;19.67;;;12.32;;
24008;SDS011;12217;50.792;4.372;2022-11-11T02:31:42;20.08;;;11.45;;
24008;SDS011;12217;50.792;4.372;2022-11-11T02:34:08;18.55;;;11.95;;
24008;SDS011;12217;50.792;4.372;2022-11-11T02:36:34;17.65;;;11.68;;
24008;SDS011;12217;50.792;4.372;2022-11-11T02:39:00;18.15;;;11.27;;
24008;SDS011;12217;50.792;4.372;2022-11-11T02:41:25;19.05;;;11.30;;
24008;SDS011;12217;50.792;4.372;2022-11-11T02:44:10;19.45;;;11.48;;
24008;SDS011;12217;50.792;4.372;2022-11-11T02:46:35;17.17;;;11.57;;
24008;SDS011;12217;50.792;4.372;2022-11-11T02:49:01;15.88;;;11.60;;
24008;SDS011;12217;50.792;4.372;2022-11-11T02:51:26;19.15;;;11.77;;
24008;SDS011;12217;50.792;4.372;2022-11-11T02:53:52;18.85;;;11.27;;
24008;SDS011;12217;50.792;4.372;2022-11-11T02:56:25;18.55;;;11.35;;
24008;SDS011;12217;50.792;4.372;2022-11-11T02:59:09;15.70;;;11.35;;
24008;SDS011;12217;50.792;4.372;2022-11-11T03:01:35;16.55;;;12.38;;
24008;SDS011;12217;50.792;4.372;2022-11-11T03:04:01;18.02;;;12.30;;
24008;SDS011;12217;50.792;4.372;2022-11-11T03:06:26;15.18;;;11.80;;
24008;SDS011;12217;50.792;4.372;2022-11-11T03:08:52;17.98;;;12.10;;
24008;SDS011;12217;50.792;4.372;2022-11-11T03:11:18;15.18;;;12.40;;
24008;SDS011;12217;50.792;4.372;2022-11-11T03:13:53;17.45;;;12.80;;
24008;SDS011;12217;50.792;4.372;2022-11-11T03:16:20;19.60;;;11.75;;
24008;SDS011;12217;50.792;4.372;2022-11-11T03:19:04;21.38;;;12.23;;
24008;SDS011;12217;50.792;4.372;2022-11-11T03:21:30;17.75;;;12.20;;
24008;SDS011;12217;50.792;4.372;2022-11-11T03:23:55;20.70;;;12.05;;
24008;SDS011;12217;50.792;4.372;2022-11-11T03:26:21;18.13;;;12.30;;
24008;SDS011;12217;50.792;4.372;2022-11-11T03:28:46;18.88;;;11.90;;
24008;SDS011;12217;50.792;4.372;2022-11-11T03:31:12;15.43;;;11.63;;
24008;SDS011;12217;50.792;4.372;2022-11-11T03:33:37;17.52;;;11.65;;
24008;SDS011;12217;50.792;4.372;2022-11-11T03:36:03;16.38;;;11.10;;
24008;SDS011;12217;50.792;4.372;2022-11-11T03:38:29;18.45;;;10.68;;
24008;SDS011;12217;50.792;4.372;2022-11-11T03:40:56;15.63;;;10.30;;
24008;SDS011;12217;50.792;4.372;2022-11-11T03:43:23;17.58;;;11.10;;
24008;SDS011;12217;50.792;4.372;2022-11-11T03:45:51;14.32;;;10.52;;
24008;SDS011;12217;50.792;4.372;2022-11-11T03:48:18;15.05;;;10.80;;
24008;SDS011;12217;50.792;4.372;2022-11-11T03:50:45;16.77;;;11.93;;
24008;SDS011;12217;50.792;4.372;2022-11-11T03:53:11;13.80;;;10.60;;
24008;SDS011;12217;50.792;4.372;2022-11-11T03:55:38;14.27;;;10.52;;
24008;SDS011;12217;50.792;4.372;2022-11-11T03:58:04;13.70;;;10.25;;
24008;SDS011;12217;50.792;4.372;2022-11-11T04:00:30;17.58;;;10.88;;
24008;SDS011;12217;50.792;4.372;2022-11-11T04:03:03;16.42;;;10.68;;
24008;SDS011;12217;50.792;4.372;2022-11-11T04:05:53;15.30;;;10.52;;
24008;SDS011;12217;50.792;4.372;2022-11-11T04:08:41;13.90;;;10.32;;
24008;SDS011;12217;50.792;4.372;2022-11-11T04:11:26;14.82;;;10.68;;
24008;SDS011;12217;50.792;4.372;2022-11-11T04:13:55;15.82;;;10.27;;
24008;SDS011;12217;50.792;4.372;2022-11-11T04:16:43;16.33;;;10.63;;
24008;SDS011;12217;50.792;4.372;2022-11-11T04:19:08;14.57;;;10.60;;
24008;SDS011;12217;50.792;4.372;2022-11-11T04:21:52;16.25;;;10.68;;
24008;SDS011;12217;50.792;4.372;2022-11-11T04:24:18;14.52;;;10.07;;
24008;SDS011;12217;50.792;4.372;2022-11-11T04:27:04;14.85;;;10.02;;
24008;SDS011;12217;50.792;4.372;2022-11-11T04:29:31;15.20;;;10.18;;
24008;SDS011;12217;50.792;4.372;2022-11-11T04:31:59;14.20;;;10.20;;
24008;SDS011;12217;50.792;4.372;2022-11-11T04:34:45;15.27;;;10.25;;
24008;SDS011;12217;50.792;4.372;2022-11-11T04:37:18;13.98;;;9.60;;
24008;SDS011;12217;50.792;4.372;2022-11-11T04:39:44;16.35;;;10.75;;
24008;SDS011;12217;50.792;4.372;2022-11-11T04:42:29;14.73;;;9.85;;
24008;SDS011;12217;50.792;4.372;2022-11-11T04:44:56;17.50;;;9.93;;
24008;SDS011;12217;50.792;4.372;2022-11-11T04:50:20;14.35;;;9.88;;
24008;SDS011;12217;50.792;4.372;2022-11-11T04:52:46;16.25;;;9.40;;
24008;SDS011;12217;50.792;4.372;2022-11-11T04:55:12;12.05;;;8.82;;
24008;SDS011;12217;50.792;4.372;2022-11-11T04:57:56;14.88;;;9.73;;
24008;SDS011;12217;50.792;4.372;2022-11-11T05:00:22;14.27;;;9.45;;
24008;SDS011;12217;50.792;4.372;2022-11-11T05:02:47;12.60;;;8.93;;
24008;SDS011;12217;50.792;4.372;2022-11-11T05:05:36;14.63;;;9.75;;
24008;SDS011;12217;50.792;4.372;2022-11-11T05:08:20;12.80;;;10.50;;
24008;SDS011;12217;50.792;4.372;2022-11-11T05:11:04;16.05;;;9.85;;
24008;SDS011;12217;50.792;4.372;2022-11-11T05:13:29;14.32;;;10.10;;
24008;SDS011;12217;50.792;4.372;2022-11-11T05:16:15;17.40;;;10.00;;
24008;SDS011;12217;50.792;4.372;2022-11-11T05:19:05;15.07;;;9.73;;
24008;SDS011;12217;50.792;4.372;2022-11-11T05:21:51;18.45;;;12.15;;
24008;SDS011;12217;50.792;4.372;2022-11-11T05:24:20;17.50;;;10.82;;
24008;SDS011;12217;50.792;4.372;2022-11-11T05:27:06;14.13;;;10.82;;
24008;SDS011;12217;50.792;4.372;2022-11-11T05:29:31;12.80;;;11.07;;
24008;SDS011;12217;50.792;4.372;2022-11-11T05:31:57;15.70;;;12.25;;
24008;SDS011;12217;50.792;4.372;2022-11-11T05:34:22;15.20;;;11.52;;
24008;SDS011;12217;50.792;4.372;2022-11-11T05:36:48;16.55;;;12.10;;
24008;SDS011;12217;50.792;4.372;2022-11-11T05:39:14;19.77;;;12.80;;
24008;SDS011;12217;50.792;4.372;2022-11-11T05:41:39;22.95;;;14.15;;
24008;SDS011;12217;50.792;4.372;2022-11-11T05:44:05;21.10;;;13.75;;
24008;SDS011;12217;50.792;4.372;2022-11-11T05:46:30;18.38;;;13.00;;
24008;SDS011;12217;50.792;4.372;2022-11-11T05:48:56;22.17;;;13.10;;
24008;SDS011;12217;50.792;4.372;2022-11-11T05:51:39;16.48;;;13.73;;
24008;SDS011;12217;50.792;4.372;2022-11-11T05:54:05;19.13;;;13.30;;
24008;SDS011;12217;50.792;4.372;2022-11-11T05:56:31;20.17;;;13.88;;
24008;SDS011;12217;50.792;4.372;2022-11-11T05:58:56;21.33;;;14.45;;
24008;SDS011;12217;50.792;4.372;2022-11-11T06:01:22;20.02;;;13.88;;
24008;SDS011;12217;50.792;4.372;2022-11-11T06:03:48;16.00;;;13.10;;
24008;SDS011;12217;50.792;4.372;2022-11-11T06:06:13;26.10;;;14.40;;
24008;SDS011;12217;50.792;4.372;2022-11-11T06:08:39;18.98;;;14.32;;
24008;SDS011;12217;50.792;4.372;2022-11-11T06:11:05;19.80;;;13.45;;
24008;SDS011;12217;50.792;4.372;2022-11-11T06:13:30;18.38;;;14.55;;
24008;SDS011;12217;50.792;4.372;2022-11-11T06:15:56;18.27;;;14.60;;
24008;SDS011;12217;50.792;4.372;2022-11-11T06:18:22;22.77;;;14.43;;
24008;SDS011;12217;50.792;4.372;2022-11-11T06:20:55;18.85;;;13.90;;
24008;SDS011;12217;50.792;4.372;2022-11-11T06:23:22;17.70;;;14.15;;
24008;SDS011;12217;50.792;4.372;2022-11-11T06:25:48;19.48;;;14.80;;
24008;SDS011;12217;50.792;4.372;2022-11-11T06:28:32;22.08;;;15.82;;
24008;SDS011;12217;50.792;4.372;2022-11-11T06:30:58;21.20;;;16.05;;
24008;SDS011;12217;50.792;4.372;2022-11-11T06:33:24;22.13;;;16.48;;
24008;SDS011;12217;50.792;4.372;2022-11-11T06:35:49;21.33;;;16.33;;
24008;SDS011;12217;50.792;4.372;2022-11-11T06:38:15;19.85;;;15.60;;
24008;SDS011;12217;50.792;4.372;2022-11-11T06:40:41;21.55;;;15.75;;
24008;SDS011;12217;50.792;4.372;2022-11-11T06:43:07;22.45;;;15.98;;
24008;SDS011;12217;50.792;4.372;2022-11-11T06:45:33;20.60;;;15.85;;
24008;SDS011;12217;50.792;4.372;2022-11-11T06:48:00;22.38;;;16.25;;
24008;SDS011;12217;50.792;4.372;2022-11-11T06:50:26;21.30;;;15.88;;
24008;SDS011;12217;50.792;4.372;2022-11-11T06:52:53;23.63;;;16.92;;
24008;SDS011;12217;50.792;4.372;2022-11-11T06:55:19;20.92;;;16.45;;
24008;SDS011;12217;50.792;4.372;2022-11-11T06:57:46;22.67;;;16.08;;
24008;SDS011;12217;50.792;4.372;2022-11-11T07:00:11;25.45;;;17.00;;
24008;SDS011;12217;50.792;4.372;2022-11-11T07:02:37;25.67;;;17.67;;
24008;SDS011;12217;50.792;4.372;2022-11-11T07:05:03;26.90;;;18.30;;
24008;SDS011;12217;50.792;4.372;2022-11-11T07:07:29;23.23;;;16.35;;
24008;SDS011;12217;50.792;4.372;2022-11-11T07:09:55;25.30;;;17.48;;
24008;SDS011;12217;50.792;4.372;2022-11-11T07:12:21;29.33;;;17.45;;
24008;SDS011;12217;50.792;4.372;2022-11-11T07:14:47;28.50;;;18.20;;
24008;SDS011;12217;50.792;4.372;2022-11-11T07:17:13;24.58;;;16.73;;
24008;SDS011;12217;50.792;4.372;2022-11-11T07:19:39;23.38;;;17.00;;
24008;SDS011;12217;50.792;4.372;2022-11-11T07:22:04;24.83;;;16.92;;
24008;SDS011;12217;50.792;4.372;2022-11-11T07:24:30;25.70;;;16.90;;
24008;SDS011;12217;50.792;4.372;2022-11-11T07:26:56;27.00;;;17.42;;
24008;SDS011;12217;50.792;4.372;2022-11-11T07:29:23;23.60;;;17.25;;
24008;SDS011;12217;50.792;4.372;2022-11-11T07:31:49;24.23;;;16.60;;
24008;SDS011;12217;50.792;4.372;2022-11-11T07:34:15;25.67;;;16.58;;
24008;SDS011;12217;50.792;4.372;2022-11-11T07:36:41;25.13;;;17.02;;
24008;SDS011;12217;50.792;4.372;2022-11-11T07:39:06;24.80;;;16.63;;
24008;SDS011;12217;50.792;4.372;2022-11-11T07:41:32;23.27;;;15.82;;
24008;SDS011;12217;50.792;4.372;2022-11-11T07:43:57;24.45;;;16.13;;
24008;SDS011;12217;50.792;4.372;2022-11-11T07:46:23;22.83;;;17.00;;
24008;SDS011;12217;50.792;4.372;2022-11-11T07:48:49;23.15;;;16.60;;
24008;SDS011;12217;50.792;4.372;2022-11-11T07:51:15;24.70;;;16.08;;
24008;SDS011;12217;50.792;4.372;2022-11-11T07:53:40;24.88;;;15.30;;
24008;SDS011;12217;50.792;4.372;2022-11-11T07:56:06;22.90;;;15.80;;
24008;SDS011;12217;50.792;4.372;2022-11-11T07:58:31;22.80;;;14.57;;
24008;SDS011;12217;50.792;4.372;2022-11-11T08:01:00;24.10;;;15.27;;
24008;SDS011;12217;50.792;4.372;2022-11-11T08:03:26;20.35;;;15.43;;
24008;SDS011;12217;50.792;4.372;2022-11-11T08:05:52;21.48;;;14.63;;
24008;SDS011;12217;50.792;4.372;2022-11-11T08:08:19;20.45;;;14.35;;
24008;SDS011;12217;50.792;4.372;2022-11-11T08:10:49;21.48;;;14.35;;
24008;SDS011;12217;50.792;4.372;2022-11-11T08:13:17;20.52;;;14.18;;
24008;SDS011;12217;50.792;4.372;2022-11-11T08:16:01;23.98;;;14.48;;
24008;SDS011;12217;50.792;4.372;2022-11-11T08:18:30;21.63;;;14.45;;
24008;SDS011;12217;50.792;4.372;2022-11-11T08:20:56;18.80;;;13.77;;
24008;SDS011;12217;50.792;4.372;2022-11-11T08:23:22;22.27;;;13.90;;
24008;SDS011;12217;50.792;4.372;2022-11-11T08:25:56;21.27;;;14.10;;
24008;SDS011;12217;50.792;4.372;2022-11-11T08:28:26;19.63;;;13.30;;
24008;SDS011;12217;50.792;4.372;2022-11-11T08:30:53;18.95;;;13.20;;
24008;SDS011;12217;50.792;4.372;2022-11-11T08:33:19;18.95;;;12.93;;
24008;SDS011;12217;50.792;4.372;2022-11-11T08:35:45;17.17;;;13.10;;
24008;SDS011;12217;50.792;4.372;2022-11-11T08:38:11;17.77;;;11.55;;
24008;SDS011;12217;50.792;4.372;2022-11-11T08:40:38;16.35;;;12.25;;
24008;SDS011;12217;50.792;4.372;2022-11-11T08:43:04;16.48;;;11.55;;
24008;SDS011;12217;50.792;4.372;2022-11-11T08:45:29;15.65;;;12.02;;
24008;SDS011;12217;50.792;4.372;2022-11-11T08:47:55;15.50;;;11.98;;
24008;SDS011;12217;50.792;4.372;2022-11-11T08:50:21;16.63;;;10.75;;
24008;SDS011;12217;50.792;4.372;2022-11-11T08:52:47;16.15;;;11.23;;
24008;SDS011;12217;50.792;4.372;2022-11-11T08:55:13;16.85;;;10.68;;
24008;SDS011;12217;50.792;4.372;2022-11-11T08:57:40;13.63;;;10.70;;
24008;SDS011;12217;50.792;4.372;2022-11-11T09:00:06;12.43;;;10.25;;
24008;SDS011;12217;50.792;4.372;2022-11-11T09:02:33;15.82;;;10.32;;
24008;SDS011;12217;50.792;4.372;2022-11-11T09:04:59;12.80;;;9.73;;
24008;SDS011;12217;50.792;4.372;2022-11-11T09:07:25;18.95;;;9.90;;
24008;SDS011;12217;50.792;4.372;2022-11-11T09:09:51;14.00;;;9.40;;
24008;SDS011;12217;50.792;4.372;2022-11-11T09:12:17;14.40;;;9.65;;
24008;SDS011;12217;50.792;4.372;2022-11-11T09:14:43;16.92;;;9.38;;
24008;SDS011;12217;50.792;4.372;2022-11-11T09:17:08;13.77;;;9.07;;
24008;SDS011;12217;50.792;4.372;2022-11-11T09:19:34;12.13;;;8.60;;
24008;SDS011;12217;50.792;4.372;2022-11-11T09:21:59;11.90;;;8.70;;
24008;SDS011;12217;50.792;4.372;2022-11-11T09:24:25;12.05;;;8.63;;
24008;SDS011;12217;50.792;4.372;2022-11-11T09:26:51;11.70;;;7.85;;
24008;SDS011;12217;50.792;4.372;2022-11-11T09:29:17;12.50;;;8.10;;
24008;SDS011;12217;50.792;4.372;2022-11-11T09:31:43;9.73;;;7.47;;
24008;SDS011;12217;50.792;4.372;2022-11-11T09:34:09;10.88;;;7.00;;
24008;SDS011;12217;50.792;4.372;2022-11-11T09:36:35;8.80;;;6.55;;
24008;SDS011;12217;50.792;4.372;2022-11-11T09:39:01;9.95;;;6.35;;
24008;SDS011;12217;50.792;4.372;2022-11-11T09:44:17;6.95;;;5.53;;
24008;SDS011;12217;50.792;4.372;2022-11-11T09:49:54;5.47;;;4.75;;
24008;SDS011;12217;50.792;4.372;2022-11-11T09:52:25;8.82;;;4.90;;
24008;SDS011;12217;50.792;4.372;2022-11-11T09:55:21;6.18;;;4.85;;
24008;SDS011;12217;50.792;4.372;2022-11-11T09:58:05;6.93;;;4.80;;
24008;SDS011;12217;50.792;4.372;2022-11-11T10:00:45;8.32;;;4.68;;
24008;SDS011;12217;50.792;4.372;2022-11-11T10:03:16;7.82;;;4.75;;
24008;SDS011;12217;50.792;4.372;2022-11-11T10:05:45;4.65;;;4.10;;
24008;SDS011;12217;50.792;4.372;2022-11-11T10:08:24;6.45;;;4.20;;
24008;SDS011;12217;50.792;4.372;2022-11-11T10:10:53;4.03;;;3.63;;
24008;SDS011;12217;50.792;4.372;2022-11-11T10:13:23;3.88;;;3.25;;
24008;SDS011;12217;50.792;4.372;2022-11-11T10:16:16;4.38;;;3.60;;
24008;SDS011;12217;50.792;4.372;2022-11-11T10:21:45;4.03;;;3.20;;
24008;SDS011;12217;50.792;4.372;2022-11-11T10:24:33;4.68;;;3.25;;
24008;SDS011;12217;50.792;4.372;2022-11-11T10:27:06;4.68;;;3.03;;
24008;SDS011;12217;50.792;4.372;2022-11-11T10:29:42;5.15;;;3.28;;
24008;SDS011;12217;50.792;4.372;2022-11-11T10:34:39;4.75;;;3.17;;
24008;SDS011;12217;50.792;4.372;2022-11-11T10:37:14;4.13;;;2.92;;
24008;SDS011;12217;50.792;4.372;2022-11-11T10:42:19;3.75;;;2.85;;
24008;SDS011;12217;50.792;4.372;2022-11-11T10:44:44;3.95;;;2.60;;
24008;SDS011;12217;50.792;4.372;2022-11-11T10:50:19;2.83;;;2.50;;
24008;SDS011;12217;50.792;4.372;2022-11-11T10:52:54;4.38;;;2.10;;
24008;SDS011;12217;50.792;4.372;2022-11-11T10:55:32;5.13;;;2.50;;
24008;SDS011;12217;50.792;4.372;2022-11-11T11:00:41;2.63;;;1.90;;
24008;SDS011;12217;50.792;4.372;2022-11-11T11:05:51;2.35;;;1.73;;
24008;SDS011;12217;50.792;4.372;2022-11-11T11:08:33;4.13;;;2.22;;
24008;SDS011;12217;50.792;4.372;2022-11-11T11:11:06;5.93;;;1.85;;
24008;SDS011;12217;50.792;4.372;2022-11-11T11:13:41;5.03;;;1.88;;
24008;SDS011;12217;50.792;4.372;2022-11-11T11:16:12;3.30;;;2.08;;
24008;SDS011;12217;50.792;4.372;2022-11-11T11:24:20;3.05;;;1.80;;
24008;SDS011;12217;50.792;4.372;2022-11-11T11:26:50;2.40;;;1.75;;
24008;SDS011;12217;50.792;4.372;2022-11-11T11:29:28;2.45;;;1.98;;
24008;SDS011;12217;50.792;4.372;2022-11-11T11:31:54;2.08;;;1.75;;
24008;SDS011;12217;50.792;4.372;2022-11-11T11:34:47;2.67;;;2.05;;
24008;SDS011;12217;50.792;4.372;2022-11-11T11:37:14;3.08;;;2.00;;
24008;SDS011;12217;50.792;4.372;2022-11-11T11:39:42;2.72;;;1.90;;
24008;SDS011;12217;50.792;4.372;2022-11-11T11:42:07;3.20;;;2.10;;
24008;SDS011;12217;50.792;4.372;2022-11-11T11:44:37;2.92;;;1.95;;
24008;SDS011;12217;50.792;4.372;2022-11-11T11:50:07;2.53;;;1.95;;
24008;SDS011;12217;50.792;4.372;2022-11-11T11:59:08;2.85;;;2.13;;
24008;SDS011;12217;50.792;4.372;2022-11-11T12:04:37;3.65;;;2.00;;
24008;SDS011;12217;50.792;4.372;2022-11-11T12:07:18;3.65;;;2.40;;
24008;SDS011;12217;50.792;4.372;2022-11-11T12:27:32;2.60;;;2.40;;
24008;SDS011;12217;50.792;4.372;2022-11-11T12:30:10;3.38;;;2.10;;
24008;SDS011;12217;50.792;4.372;2022-11-11T12:35:46;3.42;;;2.20;;
24008;SDS011;12217;50.792;4.372;2022-11-11T12:38:32;4.43;;;2.35;;
24008;SDS011;12217;50.792;4.372;2022-11-11T12:46:32;3.75;;;3.10;;
24008;SDS011;12217;50.792;4.372;2022-11-11T13:02:53;3.90;;;2.20;;
24008;SDS011;12217;50.792;4.372;2022-11-11T13:08:27;2.38;;;2.17;;
24008;SDS011;12217;50.792;4.372;2022-11-11T13:16:09;2.53;;;2.33;;
24008;SDS011;12217;50.792;4.372;2022-11-11T13:18:47;4.38;;;2.13;;
24008;SDS011;12217;50.792;4.372;2022-11-11T13:21:15;4.75;;;2.50;;
24008;SDS011;12217;50.792;4.372;2022-11-11T13:23:46;4.03;;;2.20;;
24008;SDS011;12217;50.792;4.372;2022-11-11T13:26:32;3.25;;;2.00;;
24008;SDS011;12217;50.792;4.372;2022-11-11T13:32:07;2.92;;;2.03;;
24008;SDS011;12217;50.792;4.372;2022-11-11T13:34:36;3.10;;;1.90;;
24008;SDS011;12217;50.792;4.372;2022-11-11T13:37:03;3.10;;;2.08;;
24008;SDS011;12217;50.792;4.372;2022-11-11T13:39:32;3.53;;;2.10;;
24008;SDS011;12217;50.792;4.372;2022-11-11T13:42:02;4.18;;;1.90;;
24008;SDS011;12217;50.792;4.372;2022-11-11T13:44:30;3.33;;;2.10;;
24008;SDS011;12217;50.792;4.372;2022-11-11T13:47:03;4.35;;;2.30;;
24008;SDS011;12217;50.792;4.372;2022-11-11T13:49:35;5.03;;;2.60;;
24008;SDS011;12217;50.792;4.372;2022-11-11T13:52:21;3.85;;;2.60;;
24008;SDS011;12217;50.792;4.372;2022-11-11T13:54:57;3.13;;;2.58;;
24008;SDS011;12217;50.792;4.372;2022-11-11T13:57:27;4.10;;;2.40;;
24008;SDS011;12217;50.792;4.372;2022-11-11T13:59:59;5.22;;;2.53;;
24008;SDS011;12217;50.792;4.372;2022-11-11T14:18:08;3.30;;;1.70;;
24008;SDS011;12217;50.792;4.372;2022-11-11T14:20:55;2.63;;;1.92;;
24008;SDS011;12217;50.792;4.372;2022-11-11T14:37:15;2.08;;;1.90;;
24008;SDS011;12217;50.792;4.372;2022-11-11T14:40:02;3.25;;;2.10;;
24008;SDS011;12217;50.792;4.372;2022-11-11T14:45:03;2.42;;;2.00;;
24008;SDS011;12217;50.792;4.372;2022-11-11T14:47:49;2.90;;;2.22;;
24008;SDS011;12217;50.792;4.372;2022-11-11T14:53:00;3.40;;;2.50;;
24008;SDS011;12217;50.792;4.372;2022-11-11T14:55:34;4.82;;;3.10;;
24008;SDS011;12217;50.792;4.372;2022-11-11T14:58:17;5.93;;;3.97;;
24008;SDS011;12217;50.792;4.372;2022-11-11T15:03:19;5.15;;;3.33;;
24008;SDS011;12217;50.792;4.372;2022-11-11T15:06:02;6.28;;;3.17;;
24008;SDS011;12217;50.792;4.372;2022-11-11T15:08:40;5.90;;;2.70;;
24008;SDS011;12217;50.792;4.372;2022-11-11T15:13:54;5.80;;;3.40;;
24008;SDS011;12217;50.792;4.372;2022-11-11T15:28:11;7.20;;;3.83;;
24008;SDS011;12217;50.792;4.372;2022-11-11T15:31:17;5.32;;;4.07;;
24008;SDS011;12217;50.792;4.372;2022-11-11T15:39:21;10.75;;;8.32;;
24008;SDS011;12217;50.792;4.372;2022-11-11T15:41:50;9.98;;;7.68;;
24008;SDS011;12217;50.792;4.372;2022-11-11T15:44:35;8.93;;;6.43;;
24008;SDS011;12217;50.792;4.372;2022-11-11T15:47:01;10.57;;;7.70;;
24008;SDS011;12217;50.792;4.372;2022-11-11T15:49:41;9.38;;;6.88;;
24008;SDS011;12217;50.792;4.372;2022-11-11T15:52:28;6.28;;;5.05;;
24008;SDS011;12217;50.792;4.372;2022-11-11T15:54:55;6.88;;;5.28;;
24008;SDS011;12217;50.792;4.372;2022-11-11T15:57:29;8.85;;;5.95;;
24008;SDS011;12217;50.792;4.372;2022-11-11T15:59:57;8.70;;;5.78;;
24008;SDS011;12217;50.792;4.372;2022-11-11T16:02:25;7.70;;;5.57;;
24008;SDS011;12217;50.792;4.372;2022-11-11T16:05:14;7.30;;;5.10;;
24008;SDS011;12217;50.792;4.372;2022-11-11T16:07:44;7.53;;;5.13;;
24008;SDS011;12217;50.792;4.372;2022-11-11T16:10:34;6.97;;;5.05;;
24008;SDS011;12217;50.792;4.372;2022-11-11T16:15:51;8.82;;;5.90;;
24008;SDS011;12217;50.792;4.372;2022-11-11T16:18:52;8.30;;;5.93;;
24008;SDS011;12217;50.792;4.372;2022-11-11T16:21:18;6.68;;;5.07;;
24008;SDS011;12217;50.792;4.372;2022-11-11T16:23:48;7.10;;;5.38;;
24008;SDS011;12217;50.792;4.372;2022-11-11T16:26:14;5.70;;;4.93;;
24008;SDS011;12217;50.792;4.372;2022-11-11T16:28:48;9.60;;;5.43;;
24008;SDS011;12217;50.792;4.372;2022-11-11T16:33:54;7.00;;;4.80;;
24008;SDS011;12217;50.792;4.372;2022-11-11T16:36:19;6.63;;;5.38;;
24008;SDS011;12217;50.792;4.372;2022-11-11T16:38:45;7.05;;;4.90;;
24008;SDS011;12217;50.792;4.372;2022-11-11T16:41:26;7.40;;;4.53;;
24008;SDS011;12217;50.792;4.372;2022-11-11T16:44:21;8.55;;;5.38;;
24008;SDS011;12217;50.792;4.372;2022-11-11T16:46:58;7.75;;;6.68;;
24008;SDS011;12217;50.792;4.372;2022-11-11T16:49:25;9.18;;;6.95;;
24008;SDS011;12217;50.792;4.372;2022-11-11T16:52:18;9.23;;;7.32;;
24008;SDS011;12217;50.792;4.372;2022-11-11T16:54:52;7.93;;;6.40;;
24008;SDS011;12217;50.792;4.372;2022-11-11T16:57:22;8.30;;;7.07;;
24008;SDS011;12217;50.792;4.372;2022-11-11T16:59:54;11.63;;;7.50;;
24008;SDS011;12217;50.792;4.372;2022-11-11T17:02:22;9.80;;;7.45;;
24008;SDS011;12217;50.792;4.372;2022-11-11T17:04:53;9.98;;;7.75;;
24008;SDS011;12217;50.792;4.372;2022-11-11T17:12:47;8.63;;;6.72;;
24008;SDS011;12217;50.792;4.372;2022-11-11T17:15:16;10.40;;;7.40;;
24008;SDS011;12217;50.792;4.372;2022-11-11T17:17:43;11.07;;;8.48;;
24008;SDS011;12217;50.792;4.372;2022-11-11T17:20:11;9.95;;;6.88;;
24008;SDS011;12217;50.792;4.372;2022-11-11T17:22:48;10.63;;;7.70;;
24008;SDS011;12217;50.792;4.372;2022-11-11T17:25:15;12.50;;;9.77;;
24008;SDS011;12217;50.792;4.372;2022-11-11T17:27:41;10.60;;;8.77;;
24008;SDS011;12217;50.792;4.372;2022-11-11T17:30:07;10.57;;;8.98;;
24008;SDS011;12217;50.792;4.372;2022-11-11T17:32:34;10.52;;;8.05;;
24008;SDS011;12217;50.792;4.372;2022-11-11T17:34:59;11.35;;;8.55;;
24008;SDS011;12217;50.792;4.372;2022-11-11T17:37:25;11.45;;;7.53;;
24008;SDS011;12217;50.792;4.372;2022-11-11T17:39:51;14.38;;;9.63;;
24008;SDS011;12217;50.792;4.372;2022-11-11T17:42:16;9.43;;;8.43;;